Loving, TX (76460)

11:44 PM CDT on May 06, 2015 (GMT -0500)
Eastside Lake Graham | | Change Station
CLOSE
Current Station
Personal Weather Station
Location: Graham, TX
Elevation: 1096 ft
Nearby Weather Stations
Active Advisory: Tornado Watch

Elev 1096 ft 33.19 °N, 98.64 °W | Updated 21 seconds ago

Partly Cloudy
Partly Cloudy
76.3 °F
Feels Like 77 °F
N
1.8
Wind Variable Wind from SE
Gusts 2.5 mph

Today
High -- | Low -- °F
--% Chance of Precip.
Yesterday
High -- | Low -- °F
Precip. -- in
6:41 AM 8:20 PM
Waning Gibbous, 90% visible
Pressure 29.83 in
Visibility 10.0 miles
Clouds Scattered Clouds 2800 ft
Mostly Cloudy 3900 ft
Mostly Cloudy 4700 ft
Heat Index 77 °F
Dew Point 72 °F
Humidity 86%
Rainfall 0.00 in
Snow Depth Not available.
UV 0.0 out of 12
Pollen 5.90 out of 12
Air Quality Not available.
Flu Activity Sporadic
METAR KRPH 070435Z AUTO 11010G16KT 10SM SCT028 BKN039 BKN047 24/21 A2983 RMK AO2 T02380210

More Conditions Fewer Conditions

Pressure 29.83 in
Visibility 10.0 miles
Clouds Scattered Clouds 2800 ft
Mostly Cloudy 3900 ft
Mostly Cloudy 4700 ft
Heat Index 77 °F
Dew Point 72 °F
Humidity 86%
Rainfall 0.00 in
Snow Depth Not available.
UV 0.0 out of 12
Pollen 5.90 out of 12
Air Quality Not available.
Flu Activity Sporadic
METAR KRPH 070435Z AUTO 11010G16KT 10SM SCT028 BKN039 BKN047 24/21 A2983 RMK AO2 T02380210

More Conditions Fewer Conditions

The Storm Prediction Center has issued an enhanced risk of severe weather for parts of central Texas, Oklahoma, Kansas, and southern Nebraska. Severe thunderstorms are developing throughout the area, producing tornadoes, heavy rain, and large hail. Tornadoes will be possible into the evening.

10-Day Weather Forecast

Almanac

Astronomy

May. 06, 2015 Rise Set
Actual Time
Civil Twilight
Nautical Twilight
Astronomical Twilight
Moon
Length of Visible Light
Length of Day
Tomorrow will be .
, % of the Moon is Illuminated

Today's Extremes

State Highs State Lows

Community

WunderPhotos

Upload Photos

1,819,121 photos uploaded!

WunderBlogs® & News

Nearby

Air Quality

  Air Quality AQ Index Pollutant
Not available.

Snow Depth

Station Depth Elevation

Earthquake Activity

City Distance Mag. Time & Date
Minimum magnitude displayed is 2.5.

Coastal Water Temperatures

Place Temperature

Stations

Nearby Weather Stations

Station Location Temp. Windchill Dew Point Humidity Wind Precip. Elev Updated Type
                   
Tornado Watch
Statement as of 11:43 PM CDT on May 06, 2015

Tornado Watch 137 remains in effect until 200 am CDT for the
following locations

TX
. Texas counties included are

Archer Baylor Clay
Foard Hardeman Haskell
Jack Knox Montague
Throckmorton Wichita Wilbarger
Young